Time;durP1;ratioP1;P1;durP2;ratioP2;P2;SDS_P1;SDS_P2;PMS_P1;PMS_P2;Temp;Humidity;BMP_temperature;BMP_pressure;BME280_temperature;BME280_humidity;BME280_pressure;Samples;Min_cycle;Max_cycle;Signal;HPM_P1;HPM_P2
2023/03/10 00:01:17;;;;;;;26.92;14.00;;;0.20;99.70;;;;;;5043822;28;20220;-75
2023/03/10 00:03:43;;;;;;;28.70;12.95;;;0.20;99.70;;;;;;5037749;28;20036;-75
2023/03/10 00:06:11;;;;;;;24.67;13.15;;;0.20;99.60;;;;;;5043580;28;20056;-75
2023/03/10 00:08:37;;;;;;;24.70;13.32;;;0.20;99.70;;;;;;5050671;28;20025;-76
2023/03/10 00:11:02;;;;;;;29.48;12.93;;;0.20;99.70;;;;;;5046826;28;20037;-76
2023/03/10 00:13:28;;;;;;;29.85;14.15;;;0.20;99.70;;;;;;5048346;28;20036;-76
2023/03/10 00:15:54;;;;;;;26.75;12.52;;;0.20;99.70;;;;;;5053106;28;20469;-75
2023/03/10 00:18:19;;;;;;;25.60;12.30;;;0.20;99.70;;;;;;5051621;28;20490;-76
2023/03/10 00:20:44;;;;;;;29.55;13.60;;;0.20;99.70;;;;;;5047246;28;20052;-76
2023/03/10 00:23:10;;;;;;;25.52;12.80;;;0.20;99.70;;;;;;5048948;28;20033;-76
2023/03/10 00:25:35;;;;;;;24.35;12.95;;;0.20;99.70;;;;;;5051253;28;20511;-76
2023/03/10 00:28:01;;;;;;;24.30;12.55;;;0.20;99.70;;;;;;5046608;28;20028;-76
2023/03/10 00:30:28;;;;;;;27.83;13.38;;;0.20;99.80;;;;;;5049668;28;20386;-76
2023/03/10 00:32:53;;;;;;;29.58;13.43;;;0.20;99.80;;;;;;5030310;28;20025;-76
2023/03/10 00:35:19;;;;;;;25.27;12.57;;;0.20;99.70;;;;;;5050384;28;20037;-76
2023/03/10 00:37:44;;;;;;;25.60;13.00;;;0.20;99.70;;;;;;5049431;28;20450;-75
2023/03/10 00:40:13;;;;;;;28.65;13.65;;;0.20;99.80;;;;;;5052418;28;20044;-76
2023/03/10 00:42:40;;;;;;;28.02;13.55;;;0.20;99.80;;;;;;5048326;28;20036;-76
2023/03/10 00:45:05;;;;;;;29.05;13.45;;;0.20;99.80;;;;;;5050162;28;20060;-75
2023/03/10 00:47:31;;;;;;;31.90;13.38;;;0.20;99.80;;;;;;5044939;28;20029;-75
2023/03/10 00:49:57;;;;;;;29.13;13.73;;;0.20;99.80;;;;;;5049486;28;20430;-76
2023/03/10 00:52:22;;;;;;;27.83;13.57;;;0.10;99.80;;;;;;5049199;28;20040;-75
2023/03/10 00:54:48;;;;;;;28.30;13.88;;;0.20;99.80;;;;;;5045961;28;20458;-75
2023/03/10 00:57:14;;;;;;;27.45;14.32;;;0.20;99.80;;;;;;5047912;28;20035;-76
2023/03/10 00:59:39;;;;;;;28.98;13.88;;;0.10;99.80;;;;;;5047346;28;20037;-76
2023/03/10 01:02:04;;;;;;;27.05;12.63;;;0.10;99.80;;;;;;5047332;28;20064;-76
2023/03/10 01:04:30;;;;;;;29.05;14.70;;;0.20;99.90;;;;;;5049172;28;20045;-76
2023/03/10 01:06:55;;;;;;;28.67;13.63;;;0.20;99.80;;;;;;5030255;28;20037;-76
2023/03/10 01:09:21;;;;;;;28.85;14.35;;;0.20;99.80;;;;;;5049427;28;20043;-76
2023/03/10 01:11:47;;;;;;;28.60;13.85;;;0.20;99.80;;;;;;5051857;28;20511;-76
2023/03/10 01:14:15;;;;;;;26.05;12.23;;;0.20;99.80;;;;;;5048697;28;20037;-75
2023/03/10 01:16:40;;;;;;;27.30;13.52;;;0.10;99.80;;;;;;5055097;28;20116;-76
2023/03/10 01:19:06;;;;;;;29.27;13.60;;;0.20;99.80;;;;;;5049672;28;20175;-76
2023/03/10 01:21:33;;;;;;;26.13;13.43;;;0.20;99.80;;;;;;5045080;28;20087;-76
2023/03/10 01:24:00;;;;;;;26.77;12.50;;;0.10;99.80;;;;;;5046603;28;20478;-76
2023/03/10 01:26:25;;;;;;;25.70;12.75;;;0.10;99.80;;;;;;5048880;28;20045;-76
2023/03/10 01:28:51;;;;;;;26.25;13.10;;;0.10;99.80;;;;;;5045104;28;20048;-76
2023/03/10 01:31:17;;;;;;;25.23;12.75;;;0.10;99.90;;;;;;5047326;28;20057;-76
2023/03/10 01:33:43;;;;;;;26.25;12.48;;;0.20;99.90;;;;;;5047385;28;20124;-76
2023/03/10 01:36:10;;;;;;;23.08;11.88;;;0.10;99.90;;;;;;5049369;28;20111;-76
2023/03/10 01:38:37;;;;;;;27.65;13.40;;;0.10;99.80;;;;;;5050730;28;20052;-76
2023/03/10 01:41:04;;;;;;;27.38;12.65;;;0.20;99.90;;;;;;5050070;28;20025;-76
2023/03/10 01:43:36;;;;;;;27.25;12.18;;;0.10;99.80;;;;;;5047773;28;20040;-76
2023/03/10 01:46:01;;;;;;;23.50;11.40;;;0.10;99.80;;;;;;5041674;28;20112;-76
2023/03/10 01:48:30;;;;;;;22.08;11.80;;;0.20;99.90;;;;;;5043716;28;20127;-76
2023/03/10 01:50:56;;;;;;;26.15;13.45;;;0.10;99.80;;;;;;5047107;28;20106;-76
2023/03/10 01:53:24;;;;;;;25.65;12.18;;;0.20;99.90;;;;;;5050534;28;20429;-76
2023/03/10 01:55:59;;;;;;;26.90;12.98;;;0.10;99.90;;;;;;5042084;28;21247;-76
2023/03/10 01:58:30;;;;;;;26.38;12.38;;;0.10;99.90;;;;;;5048405;28;20114;-76
2023/03/10 02:00:55;;;;;;;23.08;12.30;;;0.20;99.90;;;;;;5047101;28;20028;-76
2023/03/10 02:03:25;;;;;;;24.08;12.80;;;0.10;99.90;;;;;;5047287;28;20047;-76
2023/03/10 02:05:58;;;;;;;28.40;13.13;;;0.10;99.90;;;;;;5047251;28;20129;-76
2023/03/10 02:08:27;;;;;;;26.65;13.10;;;0.10;99.90;;;;;;5056572;28;20036;-76
2023/03/10 02:10:54;;;;;;;25.42;12.65;;;0.20;99.90;;;;;;5042617;28;20027;-76
2023/03/10 02:13:19;;;;;;;27.75;13.40;;;0.20;99.90;;;;;;5049471;28;20401;-76
2023/03/10 02:15:45;;;;;;;29.83;13.48;;;0.10;99.90;;;;;;5055702;28;20041;-76
2023/03/10 02:18:13;;;;;;;25.38;13.02;;;0.10;99.90;;;;;;5046162;28;20075;-76
2023/03/10 02:20:55;;;;;;;28.67;13.60;;;0.20;99.90;;;;;;5048823;28;20036;-76
2023/03/10 02:23:28;;;;;;;24.27;12.63;;;0.10;99.90;;;;;;5052667;28;20040;-76
2023/03/10 02:26:04;;;;;;;25.40;12.52;;;0.20;99.90;;;;;;5050071;28;20039;-76
2023/03/10 02:28:29;;;;;;;24.23;12.27;;;0.20;99.90;;;;;;5048061;28;20184;-76
2023/03/10 02:30:56;;;;;;;30.40;13.40;;;0.20;99.90;;;;;;5049074;28;20114;-76
2023/03/10 02:33:30;;;;;;;26.88;12.23;;;0.20;99.90;;;;;;5044935;28;20061;-75
2023/03/10 02:36:23;;;;;;;27.13;12.85;;;0.10;99.90;;;;;;5051684;28;20025;-76
2023/03/10 02:38:49;;;;;;;26.50;12.55;;;0.10;99.90;;;;;;5037578;28;20179;-75
2023/03/10 02:41:29;;;;;;;26.05;12.85;;;0.20;99.90;;;;;;5051461;28;20067;-76
2023/03/10 02:43:58;;;;;;;25.65;12.57;;;0.10;99.90;;;;;;5047357;28;20033;-76
2023/03/10 02:46:24;;;;;;;27.83;13.13;;;0.10;99.90;;;;;;5048393;28;20120;-76
2023/03/10 02:48:50;;;;;;;28.30;13.13;;;0.10;99.90;;;;;;5046984;28;20438;-75
2023/03/10 02:51:20;;;;;;;28.80;11.88;;;0.10;99.90;;;;;;5044834;28;20065;-75
2023/03/10 02:53:46;;;;;;;28.88;12.82;;;0.10;99.90;;;;;;5046858;28;20477;-76
2023/03/10 02:56:11;;;;;;;28.50;12.45;;;0.10;99.90;;;;;;5044407;28;20041;-76
2023/03/10 02:58:37;;;;;;;24.35;11.95;;;0.10;99.90;;;;;;5048071;28;20037;-76
2023/03/10 03:01:04;;;;;;;29.60;11.95;;;0.10;99.90;;;;;;5045626;28;20033;-75
2023/03/10 03:03:29;;;;;;;26.05;12.20;;;0.10;99.90;;;;;;5040499;28;20458;-75
2023/03/10 03:05:55;;;;;;;23.27;12.13;;;0.10;99.90;;;;;;5046844;28;20086;-76
2023/03/10 03:08:21;;;;;;;26.13;12.50;;;0.10;99.90;;;;;;5049056;28;20037;-76
2023/03/10 03:10:47;;;;;;;24.20;11.80;;;0.10;99.90;;;;;;5048894;28;20079;-76
2023/03/10 03:13:12;;;;;;;22.83;10.70;;;0.10;99.90;;;;;;5044377;28;20037;-76
2023/03/10 03:15:38;;;;;;;22.15;10.48;;;0.10;99.90;;;;;;5052760;28;20027;-76
2023/03/10 03:18:04;;;;;;;25.33;10.77;;;0.10;99.90;;;;;;5048138;28;20401;-75
2023/03/10 03:20:31;;;;;;;23.98;10.98;;;0.20;99.90;;;;;;5047135;28;20442;-76
2023/03/10 03:22:57;;;;;;;25.27;10.80;;;0.10;99.90;;;;;;5046112;28;20017;-76
2023/03/10 03:25:24;;;;;;;24.13;11.50;;;0.10;99.90;;;;;;5050036;28;20032;-76
2023/03/10 03:27:50;;;;;;;20.48;10.25;;;0.10;99.90;;;;;;5028777;28;20045;-75
2023/03/10 03:30:18;;;;;;;24.73;11.13;;;0.10;99.90;;;;;;5043392;28;20060;-76
2023/03/10 03:32:44;;;;;;;23.02;10.80;;;0.20;99.90;;;;;;5046141;28;20064;-75
2023/03/10 03:35:14;;;;;;;22.35;10.40;;;0.20;99.90;;;;;;5048707;28;20067;-75
2023/03/10 03:37:40;;;;;;;22.67;10.77;;;0.10;99.90;;;;;;5045683;28;20033;-75
2023/03/10 03:40:13;;;;;;;21.88;9.57;;;0.10;99.90;;;;;;5048549;28;20033;-76
2023/03/10 03:42:44;;;;;;;20.88;10.00;;;0.10;99.90;;;;;;5046363;28;20029;-76
2023/03/10 03:45:12;;;;;;;20.23;10.18;;;0.10;99.90;;;;;;5052339;28;20245;-76
2023/03/10 03:47:38;;;;;;;22.98;9.95;;;0.10;99.90;;;;;;5047532;28;20408;-76
2023/03/10 03:50:04;;;;;;;23.95;10.95;;;0.10;99.90;;;;;;5053569;28;20029;-75
2023/03/10 03:52:31;;;;;;;23.58;11.00;;;0.10;99.90;;;;;;5046704;28;20116;-75
2023/03/10 03:54:56;;;;;;;26.15;11.55;;;0.10;99.90;;;;;;5038339;28;20199;-76
2023/03/10 03:57:22;;;;;;;26.08;11.27;;;0.10;99.90;;;;;;5037130;28;20108;-75
2023/03/10 03:59:48;;;;;;;20.88;9.50;;;0.10;99.90;;;;;;5052594;28;20104;-75
2023/03/10 04:02:13;;;;;;;23.85;11.80;;;0.10;99.90;;;;;;5043860;28;20041;-75
2023/03/10 04:04:39;;;;;;;23.73;10.18;;;0.10;99.90;;;;;;5048529;28;20040;-75
2023/03/10 04:07:04;;;;;;;23.30;10.23;;;0.10;99.90;;;;;;5042184;28;20045;-75
2023/03/10 04:09:30;;;;;;;24.80;10.38;;;0.10;99.90;;;;;;5045947;28;20042;-75
2023/03/10 04:11:55;;;;;;;24.80;10.13;;;0.10;99.90;;;;;;5048868;28;20526;-76
2023/03/10 04:14:21;;;;;;;22.67;11.00;;;0.10;99.90;;;;;;5051136;28;20033;-75
2023/03/10 04:16:47;;;;;;;23.50;11.02;;;0.10;99.90;;;;;;5048955;28;20033;-75
2023/03/10 04:19:12;;;;;;;26.88;11.05;;;0.10;99.90;;;;;;5044899;28;20397;-75
2023/03/10 04:21:38;;;;;;;27.23;11.45;;;0.10;99.90;;;;;;5049057;28;20104;-75
2023/03/10 04:24:04;;;;;;;23.30;11.35;;;0.10;99.90;;;;;;5047562;28;20092;-75
2023/03/10 04:26:29;;;;;;;26.38;10.98;;;0.10;99.90;;;;;;5051025;28;20329;-75
2023/03/10 04:28:56;;;;;;;26.60;11.48;;;0.10;99.90;;;;;;5050929;28;20032;-75
2023/03/10 04:31:22;;;;;;;23.65;11.15;;;0.10;99.90;;;;;;5049625;28;20379;-75
2023/03/10 04:33:48;;;;;;;25.23;11.40;;;0.10;99.90;;;;;;5040070;28;20048;-76
2023/03/10 04:36:13;;;;;;;22.77;10.02;;;0.10;99.90;;;;;;5047085;28;20033;-75
2023/03/10 04:38:39;;;;;;;23.50;10.77;;;0.10;99.90;;;;;;5054279;28;20040;-75
2023/03/10 04:41:05;;;;;;;26.08;11.95;;;0.10;99.90;;;;;;5051559;28;20083;-75
2023/03/10 04:43:31;;;;;;;24.38;10.85;;;0.10;99.90;;;;;;5046618;28;20119;-75
2023/03/10 04:45:57;;;;;;;23.23;10.45;;;0.10;99.90;;;;;;5045083;28;20086;-75
2023/03/10 04:48:23;;;;;;;23.20;11.10;;;0.10;99.90;;;;;;5044461;28;20473;-75
2023/03/10 04:51:00;;;;;;;23.80;10.77;;;0.10;99.90;;;;;;5049996;28;20025;-75
2023/03/10 04:53:27;;;;;;;21.83;9.95;;;0.10;99.90;;;;;;5045301;28;20671;-75
2023/03/10 04:55:53;;;;;;;23.00;11.02;;;0.10;99.90;;;;;;5045927;28;20037;-76
2023/03/10 04:58:20;;;;;;;23.08;10.57;;;0.10;99.90;;;;;;5049277;28;20036;-75
2023/03/10 05:00:45;;;;;;;22.02;11.27;;;0.10;99.90;;;;;;5043592;28;20033;-75
2023/03/10 05:03:11;;;;;;;23.67;10.85;;;0.10;99.90;;;;;;5046310;28;20466;-76
2023/03/10 05:05:37;;;;;;;25.70;11.90;;;0.10;99.90;;;;;;5048826;28;20029;-75
2023/03/10 05:08:04;;;;;;;28.67;11.48;;;0.10;99.90;;;;;;5029791;28;20063;-76
2023/03/10 05:10:29;;;;;;;23.85;10.93;;;0.10;99.90;;;;;;5051397;28;20052;-76
2023/03/10 05:12:55;;;;;;;25.38;12.25;;;0.10;99.90;;;;;;5047590;28;20029;-75
2023/03/10 05:15:21;;;;;;;26.15;12.05;;;0.10;99.90;;;;;;5056576;28;20367;-75
2023/03/10 05:17:46;;;;;;;25.65;11.68;;;0.10;99.90;;;;;;5045549;28;20106;-75
2023/03/10 05:20:13;;;;;;;23.38;10.82;;;0.10;99.90;;;;;;5046613;28;20028;-75
2023/03/10 05:22:39;;;;;;;24.40;12.38;;;0.10;99.90;;;;;;5048662;28;20017;-75
2023/03/10 05:25:06;;;;;;;24.50;11.85;;;0.10;99.90;;;;;;5043394;28;22449;-75
2023/03/10 05:27:33;;;;;;;25.65;11.63;;;0.10;99.90;;;;;;5047067;28;20551;-75
2023/03/10 05:29:58;;;;;;;26.83;12.57;;;0.10;99.90;;;;;;5026121;28;20730;-79
2023/03/10 05:32:24;;;;;;;30.17;12.82;;;0.10;99.90;;;;;;5049917;28;20087;-76
2023/03/10 05:34:50;;;;;;;26.15;12.95;;;0.10;99.90;;;;;;5039952;28;20456;-76
2023/03/10 05:37:16;;;;;;;25.70;12.45;;;0.10;99.90;;;;;;5041035;28;20067;-76
2023/03/10 05:39:42;;;;;;;25.58;12.35;;;0.10;99.90;;;;;;5040258;28;20037;-76
2023/03/10 05:42:11;;;;;;;27.40;12.57;;;0.10;99.90;;;;;;5044893;28;20036;-77
2023/03/10 05:44:36;;;;;;;29.48;12.50;;;0.10;99.90;;;;;;5041273;28;20044;-73
2023/03/10 05:47:02;;;;;;;29.67;12.05;;;0.10;99.90;;;;;;5047273;28;20037;-72
2023/03/10 05:49:27;;;;;;;26.65;12.90;;;0.10;99.90;;;;;;5049260;28;20499;-75
2023/03/10 05:51:53;;;;;;;27.30;11.98;;;0.10;99.90;;;;;;5028643;28;21388;-75
2023/03/10 05:54:18;;;;;;;26.80;12.77;;;0.10;99.90;;;;;;5041440;28;20036;-76
2023/03/10 05:56:44;;;;;;;27.35;12.30;;;0.10;99.90;;;;;;5041657;28;20037;-75
2023/03/10 05:59:09;;;;;;;32.58;13.70;;;0.10;99.90;;;;;;5042241;28;20452;-75
2023/03/10 06:01:36;;;;;;;29.27;13.63;;;0.10;99.90;;;;;;5036146;28;20038;-77
2023/03/10 06:04:01;;;;;;;32.25;13.90;;;0.10;99.90;;;;;;5040576;28;20131;-76
2023/03/10 06:06:27;;;;;;;27.58;13.95;;;0.10;99.90;;;;;;5046362;28;20078;-73
2023/03/10 06:08:52;;;;;;;30.33;13.48;;;0.10;99.90;;;;;;5055958;28;20032;-76
2023/03/10 06:11:18;;;;;;;26.92;13.18;;;0.10;99.90;;;;;;5052181;28;20037;-77
2023/03/10 06:13:44;;;;;;;31.08;13.65;;;0.10;99.90;;;;;;5050761;28;20161;-76
2023/03/10 06:16:10;;;;;;;29.52;13.50;;;0.10;99.90;;;;;;5055693;28;20088;-77
2023/03/10 06:18:35;;;;;;;31.10;14.55;;;0.10;99.90;;;;;;5043437;28;20051;-77
2023/03/10 06:21:10;;;;;;;30.17;14.25;;;0.10;99.90;;;;;;5038360;28;20029;-78
2023/03/10 06:23:36;;;;;;;34.22;13.75;;;0.10;99.90;;;;;;5044641;28;20037;-78
2023/03/10 06:26:08;;;;;;;30.58;14.18;;;0.10;99.90;;;;;;5043541;28;20036;-78
2023/03/10 06:28:35;;;;;;;38.53;15.55;;;0.10;99.90;;;;;;5044071;28;20486;-77
2023/03/10 06:31:04;;;;;;;36.50;14.88;;;0.20;99.90;;;;;;5047056;28;20069;-75
2023/03/10 06:33:30;;;;;;;35.72;15.38;;;0.20;99.90;;;;;;5043905;28;20057;-79
2023/03/10 06:35:55;;;;;;;34.03;15.40;;;0.20;99.90;;;;;;5047416;28;20402;-77
2023/03/10 06:38:22;;;;;;;36.85;15.93;;;0.20;99.90;;;;;;5039053;28;20032;-78
2023/03/10 06:40:48;;;;;;;35.33;15.25;;;0.30;99.90;;;;;;5046667;28;20033;-76
2023/03/10 06:43:13;;;;;;;31.50;14.57;;;0.30;99.90;;;;;;5040993;28;20069;-76
2023/03/10 06:45:43;;;;;;;35.13;14.68;;;0.30;99.90;;;;;;5042387;28;20486;-76
2023/03/10 06:48:09;;;;;;;28.77;13.40;;;0.30;99.90;;;;;;5056249;28;20515;-76
2023/03/10 06:50:35;;;;;;;38.10;15.80;;;0.40;99.90;;;;;;5053928;28;20045;-77
2023/03/10 06:53:00;;;;;;;32.10;14.68;;;0.40;99.90;;;;;;5048617;28;20170;-77
2023/03/10 06:55:26;;;;;;;34.75;15.77;;;0.40;99.90;;;;;;5052011;28;20040;-77
2023/03/10 06:57:51;;;;;;;36.35;15.45;;;0.40;99.90;;;;;;5053038;28;20052;-77
2023/03/10 07:00:18;;;;;;;37.90;15.85;;;0.40;99.90;;;;;;5045766;28;20496;-77
2023/03/10 07:02:43;;;;;;;38.95;14.50;;;0.40;99.90;;;;;;5048087;28;20024;-77
2023/03/10 07:05:11;;;;;;;34.03;15.38;;;0.50;99.90;;;;;;5043142;28;20044;-76
2023/03/10 07:07:36;;;;;;;31.75;14.15;;;0.40;99.90;;;;;;5048833;28;20505;-76
2023/03/10 07:10:03;;;;;;;35.10;16.50;;;0.40;99.90;;;;;;5053061;28;20025;-76
2023/03/10 07:12:28;;;;;;;34.38;14.70;;;0.40;99.90;;;;;;5056848;28;20424;-76
2023/03/10 07:14:53;;;;;;;34.42;15.60;;;0.50;99.90;;;;;;5061283;28;20029;-76
2023/03/10 07:17:19;;;;;;;30.90;14.43;;;0.50;99.90;;;;;;5043748;28;20072;-76
2023/03/10 07:19:44;;;;;;;32.95;14.57;;;0.50;99.90;;;;;;5063580;28;20058;-76
2023/03/10 07:22:10;;;;;;;39.35;15.52;;;0.50;99.90;;;;;;5053425;28;20385;-76
2023/03/10 07:24:35;;;;;;;30.65;14.63;;;0.50;99.80;;;;;;5068371;28;20253;-76
2023/03/10 07:27:01;;;;;;;32.95;15.57;;;0.50;99.80;;;;;;5043767;28;20045;-76
2023/03/10 07:29:27;;;;;;;34.00;15.60;;;0.60;99.80;;;;;;5044156;28;20498;-76
2023/03/10 07:31:53;;;;;;;31.33;14.23;;;0.60;99.70;;;;;;5048906;28;20468;-76
2023/03/10 07:34:18;;;;;;;33.70;15.35;;;0.50;99.60;;;;;;5038193;28;20033;-76
2023/03/10 07:36:44;;;;;;;33.67;15.20;;;0.60;99.70;;;;;;5047820;28;20056;-76
2023/03/10 07:39:09;;;;;;;33.90;16.00;;;0.60;99.70;;;;;;5048913;28;20064;-76
2023/03/10 07:41:35;;;;;;;32.72;14.43;;;0.70;99.60;;;;;;5046285;28;20032;-74
2023/03/10 07:44:00;;;;;;;36.22;16.13;;;0.70;99.50;;;;;;5042874;28;20041;-72
2023/03/10 07:46:26;;;;;;;34.20;14.98;;;0.80;99.60;;;;;;5050175;28;20430;-74
2023/03/10 07:48:52;;;;;;;31.63;14.32;;;0.80;99.50;;;;;;5049114;28;20090;-73
2023/03/10 07:51:19;;;;;;;34.40;15.38;;;0.80;99.30;;;;;;5042397;28;20126;-74
2023/03/10 07:53:44;;;;;;;34.00;15.27;;;0.80;99.40;;;;;;5037625;28;20084;-74
2023/03/10 07:56:11;;;;;;;33.92;15.25;;;0.80;99.30;;;;;;5037662;28;20124;-76
2023/03/10 07:58:37;;;;;;;35.38;15.00;;;0.80;99.30;;;;;;5046439;28;20128;-78
2023/03/10 08:01:04;;;;;;;29.25;14.30;;;0.90;99.20;;;;;;5027718;28;20184;-76
2023/03/10 08:03:31;;;;;;;29.85;14.70;;;0.90;99.10;;;;;;5047803;28;20041;-78
2023/03/10 08:05:58;;;;;;;34.03;15.23;;;1.00;99.00;;;;;;5047852;28;20055;-77
2023/03/10 08:08:24;;;;;;;37.95;16.23;;;1.00;98.90;;;;;;5050499;28;20037;-76
2023/03/10 08:10:49;;;;;;;30.75;15.68;;;1.00;99.00;;;;;;5048467;28;20405;-75
2023/03/10 08:13:15;;;;;;;34.30;16.02;;;1.00;98.90;;;;;;5043238;28;20370;-76
2023/03/10 08:15:40;;;;;;;35.85;15.75;;;1.10;98.80;;;;;;5040910;28;20029;-78
2023/03/10 08:18:07;;;;;;;33.60;16.45;;;1.00;98.70;;;;;;5044097;28;20025;-76
2023/03/10 08:20:34;;;;;;;31.63;16.15;;;1.00;98.50;;;;;;5050836;28;20059;-77
2023/03/10 08:23:00;;;;;;;35.78;17.13;;;1.00;98.50;;;;;;5042595;28;20061;-77
2023/03/10 08:25:25;;;;;;;33.78;16.40;;;1.10;98.60;;;;;;5052586;28;20503;-76
2023/03/10 08:27:51;;;;;;;34.55;16.48;;;1.10;98.50;;;;;;5042433;28;20350;-75
2023/03/10 08:30:16;;;;;;;35.67;17.17;;;1.00;98.40;;;;;;5046822;28;20114;-76
2023/03/10 08:32:42;;;;;;;35.72;17.10;;;1.10;98.40;;;;;;5048625;28;20029;-76
2023/03/10 08:35:08;;;;;;;34.25;16.65;;;1.00;98.40;;;;;;5048497;28;20036;-75
2023/03/10 08:37:33;;;;;;;37.35;17.00;;;1.00;98.30;;;;;;5048543;28;20029;-76
2023/03/10 08:39:59;;;;;;;34.15;16.30;;;1.00;98.40;;;;;;5051126;28;20473;-76
2023/03/10 08:42:25;;;;;;;32.70;15.88;;;1.00;98.30;;;;;;5054585;28;20067;-76
2023/03/10 08:44:53;;;;;;;33.25;15.88;;;1.00;98.30;;;;;;5050597;28;20033;-76
2023/03/10 08:47:19;;;;;;;34.80;17.45;;;1.00;98.30;;;;;;5047327;28;20029;-76
2023/03/10 08:49:46;;;;;;;33.28;16.60;;;1.00;98.30;;;;;;5047416;28;20480;-76
2023/03/10 08:52:12;;;;;;;34.20;16.05;;;0.90;98.20;;;;;;5048958;28;20025;-76
2023/03/10 08:54:37;;;;;;;36.35;16.05;;;0.90;98.10;;;;;;5049590;28;20063;-77
2023/03/10 08:57:03;;;;;;;34.08;16.15;;;0.80;98.20;;;;;;5050591;28;20024;-76
2023/03/10 08:59:28;;;;;;;30.60;16.63;;;0.90;98.30;;;;;;5048547;28;20021;-76
2023/03/10 09:01:54;;;;;;;31.50;15.80;;;0.90;98.20;;;;;;5050321;28;20437;-76
2023/03/10 09:04:19;;;;;;;35.70;16.33;;;0.90;98.00;;;;;;5049171;28;20029;-76
2023/03/10 09:06:45;;;;;;;29.85;14.13;;;0.90;98.20;;;;;;5047184;28;20037;-76
2023/03/10 09:09:11;;;;;;;32.78;16.17;;;0.90;98.20;;;;;;5056238;28;20044;-76
2023/03/10 09:11:38;;;;;;;29.20;15.38;;;0.90;98.30;;;;;;5047915;28;20025;-76
2023/03/10 09:14:05;;;;;;;28.05;14.93;;;0.80;98.20;;;;;;5048460;28;20450;-76
2023/03/10 09:16:30;;;;;;;29.48;14.93;;;0.80;98.20;;;;;;5054402;28;20429;-76
2023/03/10 09:18:57;;;;;;;26.30;14.18;;;0.80;98.20;;;;;;5049922;28;20112;-76
2023/03/10 09:21:23;;;;;;;29.67;14.63;;;0.90;98.30;;;;;;5046988;28;20138;-75
2023/03/10 09:23:51;;;;;;;28.30;14.98;;;0.80;98.10;;;;;;5049087;28;20099;-75
2023/03/10 09:26:18;;;;;;;27.92;14.38;;;0.90;98.30;;;;;;5039422;28;20033;-75
2023/03/10 09:28:43;;;;;;;27.67;13.82;;;0.90;98.30;;;;;;5049050;28;20040;-74
2023/03/10 09:31:14;;;;;;;26.20;13.63;;;1.00;98.40;;;;;;5044399;28;20057;-75
2023/03/10 09:33:40;;;;;;;26.42;14.32;;;1.10;98.30;;;;;;5041306;28;20056;-75
2023/03/10 09:36:06;;;;;;;33.50;15.27;;;1.30;98.30;;;;;;5050976;28;20426;-74
2023/03/10 09:38:31;;;;;;;29.77;16.48;;;1.40;98.10;;;;;;5049565;28;20103;-76
2023/03/10 09:41:22;;;;;;;27.85;14.55;;;1.50;97.90;;;;;;5043893;28;20064;-76
2023/03/10 09:44:01;;;;;;;28.15;14.02;;;1.60;97.90;;;;;;5048849;28;20033;-77
2023/03/10 09:46:44;;;;;;;26.73;14.25;;;1.60;97.70;;;;;;5040948;28;20115;-75
2023/03/10 09:49:21;;;;;;;29.42;14.77;;;1.50;97.30;;;;;;5039864;28;20034;-79
2023/03/10 09:51:48;;;;;;;29.10;15.23;;;1.60;97.30;;;;;;5048021;28;20068;-81
2023/03/10 09:54:32;;;;;;;28.75;14.88;;;1.60;97.20;;;;;;5053395;28;20124;-79
2023/03/10 09:56:59;;;;;;;28.77;14.15;;;1.60;97.20;;;;;;5044186;28;20029;-80
2023/03/10 09:59:36;;;;;;;30.55;14.48;;;1.40;96.90;;;;;;5046390;28;20037;-80
2023/03/10 10:02:19;;;;;;;26.40;14.95;;;1.50;97.20;;;;;;5043657;28;20056;-80
2023/03/10 10:04:47;;;;;;;30.77;15.25;;;1.60;97.20;;;;;;5045622;28;20049;-80
2023/03/10 10:07:16;;;;;;;27.05;14.90;;;1.80;97.30;;;;;;5055740;28;20028;-80
2023/03/10 10:09:59;;;;;;;30.45;15.35;;;1.80;96.90;;;;;;5069474;28;20085;-79
2023/03/10 10:12:25;;;;;;;27.02;15.30;;;1.90;96.90;;;;;;5054443;28;20032;-80
2023/03/10 10:15:06;;;;;;;35.72;15.65;;;1.90;96.60;;;;;;5057599;28;20035;-79
2023/03/10 10:17:50;;;;;;;;;;;2.00;96.90;;;;;;5050747;28;20466;-79
2023/03/10 10:20:30;;;;;;;28.65;15.20;;;2.00;96.60;;;;;;5052638;28;20332;-79
2023/03/10 10:22:55;;;;;;;30.38;15.07;;;2.10;96.70;;;;;;5053065;28;20385;-79
2023/03/10 10:25:23;;;;;;;27.65;15.60;;;2.00;96.30;;;;;;5051598;28;20041;-79
2023/03/10 10:27:54;;;;;;;29.15;14.63;;;2.00;96.30;;;;;;5048943;28;20052;-79
2023/03/10 10:30:24;;;;;;;;;;;1.90;96.10;;;;;;5050423;28;20524;-79
2023/03/10 10:32:57;;;;;;;28.00;13.35;;;1.90;96.00;;;;;;5043977;28;20032;-78
2023/03/10 10:35:25;;;;;;;28.20;14.32;;;2.00;96.40;;;;;;5054894;28;20462;-79
2023/03/10 10:38:17;;;;;;;28.25;15.52;;;2.00;96.30;;;;;;5054066;28;20041;-79
2023/03/10 10:41:14;;;;;;;25.45;14.35;;;2.10;96.30;;;;;;5051497;28;20033;-80
2023/03/10 10:43:46;;;;;;;28.20;14.15;;;2.20;96.10;;;;;;5043947;28;20045;-81
2023/03/10 10:46:14;;;;;;;28.42;15.63;;;2.10;95.60;;;;;;5054645;28;20031;-81
2023/03/10 10:48:46;;;;;;;26.70;14.38;;;2.20;95.70;;;;;;5054754;28;20045;-79
2023/03/10 10:51:27;;;;;;;28.48;15.60;;;2.20;94.90;;;;;;5049455;28;20033;-78
2023/03/10 10:53:58;;;;;;;26.85;14.27;;;2.20;95.10;;;;;;5050037;28;20103;-79
2023/03/10 10:56:24;;;;;;;;;;;2.30;95.10;;;;;;5048556;28;20056;-79
2023/03/10 10:59:26;;;;;;;26.73;13.70;;;2.30;95.20;;;;;;5049778;28;19974;-80
2023/03/10 11:02:02;;;;;;;26.45;14.10;;;2.50;95.10;;;;;;4997319;28;20049;-80
2023/03/10 11:04:40;;;;;;;26.13;15.02;;;2.30;93.70;;;;;;5058549;28;20033;-80
2023/03/10 11:07:16;;;;;;;24.27;14.38;;;2.40;94.80;;;;;;5048298;28;20035;-80
2023/03/10 11:09:41;;;;;;;25.23;14.98;;;2.40;94.50;;;;;;5055141;28;20032;-81
2023/03/10 11:12:18;;;;;;;27.13;15.88;;;2.60;94.50;;;;;;5047762;28;20036;-81
2023/03/10 11:15:01;;;;;;;23.85;14.30;;;2.70;94.40;;;;;;5051981;28;20035;-81
2023/03/10 11:17:41;;;;;;;23.33;14.00;;;2.70;94.10;;;;;;5045777;28;20056;-80
2023/03/10 11:20:07;;;;;;;23.27;13.23;;;3.10;94.10;;;;;;5052880;28;20029;-81
2023/03/10 11:22:54;;;;;;;24.83;14.57;;;3.30;93.70;;;;;;5053060;28;20059;-81
2023/03/10 11:25:28;;;;;;;23.40;13.25;;;3.30;93.00;;;;;;5056520;28;20067;-81
2023/03/10 11:28:21;;;;;;;23.80;14.20;;;3.40;92.20;;;;;;5053733;28;20465;-81
2023/03/10 11:31:01;;;;;;;22.80;13.00;;;3.90;92.40;;;;;;5067198;22;20053;-84
2023/03/10 11:33:39;;;;;;;24.63;14.80;;;4.10;91.60;;;;;;5030313;28;20022;-84
2023/03/10 11:36:22;;;;;;;21.75;12.82;;;4.40;91.00;;;;;;5020864;28;20493;-85
2023/03/10 11:38:51;;;;;;;23.67;13.57;;;4.50;90.60;;;;;;5023720;28;20029;-85
2023/03/10 11:41:22;;;;;;;23.85;13.93;;;4.50;89.30;;;;;;5017541;28;20021;-85
2023/03/10 11:44:18;;;;;;;25.27;13.95;;;4.70;90.30;;;;;;5022310;28;20035;-84
2023/03/10 11:47:13;;;;;;;23.50;14.50;;;5.30;89.50;;;;;;4995785;28;20029;-84
2023/03/10 11:49:42;;;;;;;20.48;12.75;;;5.60;88.30;;;;;;5035631;28;20080;-85
2023/03/10 11:52:16;;;;;;;21.30;12.13;;;5.80;87.50;;;;;;5033429;28;20031;-87
2023/03/10 11:54:46;;;;;;;20.23;13.25;;;5.80;86.90;;;;;;5024992;28;20535;-86
2023/03/10 11:57:14;;;;;;;;;;;5.60;86.60;;;;;;5035587;28;20053;-87
2023/03/10 11:59:49;;;;;;;17.88;11.60;;;5.90;88.40;;;;;;5042830;28;20395;-88
2023/03/10 12:05:24;;;;;;;18.17;11.20;;;5.40;86.50;;;;;;5054382;28;20150;-89
2023/03/10 12:07:52;;;;;;;20.65;12.43;;;5.30;87.60;;;;;;5050183;28;20021;-90
2023/03/10 12:10:23;;;;;;;17.92;12.02;;;5.50;86.40;;;;;;5142315;23;20049;-88
2023/03/10 12:15:38;;;;;;;18.77;12.30;;;5.80;86.20;;;;;;5059472;28;20041;-79
2023/03/10 12:18:06;;;;;;;19.92;12.85;;;6.00;85.30;;;;;;5066348;28;20035;-79
2023/03/10 12:20:34;;;;;;;16.95;11.63;;;6.20;84.80;;;;;;5043362;28;20063;-78
2023/03/10 12:23:25;;;;;;;19.85;12.10;;;5.80;83.10;;;;;;5068855;28;20041;-79
2023/03/10 12:25:51;;;;;;;16.23;11.07;;;6.10;84.50;;;;;;5062243;28;20151;-78
2023/03/10 12:28:21;;;;;;;19.52;12.05;;;6.10;84.30;;;;;;5051727;28;20134;-78
2023/03/10 12:30:56;;;;;;;17.45;12.32;;;6.20;84.10;;;;;;5049293;28;20088;-78
2023/03/10 12:33:38;;;;;;;18.25;11.40;;;5.70;84.60;;;;;;5057348;28;20049;-78
2023/03/10 12:36:36;;;;;;;19.75;12.40;;;5.40;84.90;;;;;;5061326;28;20033;-79
2023/03/10 12:39:26;;;;;;;18.20;11.30;;;5.70;85.00;;;;;;5052442;28;20041;-79
2023/03/10 12:41:52;;;;;;;17.37;11.40;;;5.60;85.50;;;;;;5049581;28;20040;-78
2023/03/10 12:44:21;;;;;;;18.25;11.98;;;5.20;84.50;;;;;;5056473;28;20299;-79
2023/03/10 12:47:07;;;;;;;17.52;11.23;;;5.10;85.70;;;;;;5061123;28;20028;-78
2023/03/10 12:49:32;;;;;;;19.42;11.82;;;4.90;85.30;;;;;;5052307;28;20040;-78
2023/03/10 12:52:20;;;;;;;18.35;11.75;;;4.40;86.10;;;;;;5051020;28;20032;-78